createdAt,value
2019-03-13T00:01:53.826Z,0.87
2019-03-13T00:04:22.853Z,0.80
2019-03-13T00:06:52.028Z,1.07
2019-03-13T00:09:21.911Z,1.07
2019-03-13T00:11:50.939Z,1.53
2019-03-13T00:14:20.572Z,1.20
2019-03-13T00:16:49.745Z,1.10
2019-03-13T00:19:19.074Z,1.50
2019-03-13T00:21:48.455Z,1.37
2019-03-13T00:24:17.798Z,1.70
2019-03-13T00:26:47.266Z,1.50
2019-03-13T00:29:16.333Z,1.40
2019-03-13T00:31:45.500Z,1.20
2019-03-13T00:34:15.675Z,1.90
2019-03-13T00:36:44.722Z,2.00
2019-03-13T00:39:13.846Z,1.60
2019-03-13T00:41:43.308Z,1.80
2019-03-13T00:44:12.913Z,1.90
2019-03-13T00:46:42.075Z,2.13
2019-03-13T00:49:11.158Z,1.37
2019-03-13T00:51:40.475Z,1.63
2019-03-13T00:54:09.543Z,1.80
2019-03-13T00:56:38.914Z,1.40
2019-03-13T00:59:10.672Z,1.30
2019-03-13T01:02:13.186Z,1.83
2019-03-13T01:04:59.966Z,1.43
2019-03-13T01:07:29.082Z,1.53
2019-03-13T01:09:58.253Z,1.60
2019-03-13T01:12:27.631Z,1.40
2019-03-13T01:14:56.953Z,1.87
2019-03-13T01:17:25.998Z,1.10
2019-03-13T01:19:55.054Z,1.27
2019-03-13T01:22:23.988Z,1.50
2019-03-13T01:24:52.979Z,1.10
2019-03-13T01:27:22.325Z,1.20
2019-03-13T01:29:51.437Z,1.30
2019-03-13T01:32:54.763Z,1.10
2019-03-13T01:35:39.997Z,1.43
2019-03-13T01:38:08.955Z,1.10
2019-03-13T01:40:38.013Z,1.40
2019-03-13T01:43:07.291Z,1.20
2019-03-13T01:45:38.602Z,1.40
2019-03-13T01:48:08.687Z,1.50
2019-03-13T01:50:37.752Z,1.73
2019-03-13T01:53:07.237Z,1.27
2019-03-13T01:55:36.904Z,1.33
2019-03-13T01:58:06.439Z,1.17
2019-03-13T02:00:35.478Z,1.33
2019-03-13T02:03:04.550Z,1.73
2019-03-13T02:05:33.742Z,1.50
2019-03-13T02:08:03.050Z,1.40
2019-03-13T02:10:33.180Z,1.20
2019-03-13T02:13:02.583Z,1.37
2019-03-13T02:15:31.932Z,1.40
2019-03-13T02:18:01.181Z,1.53
2019-03-13T02:20:30.527Z,1.47
2019-03-13T02:22:59.866Z,1.20
2019-03-13T02:25:28.869Z,1.23
2019-03-13T02:27:58.945Z,1.27
2019-03-13T02:30:29.713Z,1.20
2019-03-13T02:33:01.513Z,1.20
2019-03-13T02:35:30.489Z,1.20
2019-03-13T02:37:59.746Z,0.97
2019-03-13T02:40:28.762Z,1.27
2019-03-13T02:42:58.120Z,1.00
2019-03-13T02:45:27.109Z,1.33
2019-03-13T02:47:56.436Z,1.00
2019-03-13T02:50:25.463Z,1.07
2019-03-13T02:52:54.795Z,1.30
2019-03-13T02:55:24.381Z,1.17
2019-03-13T02:57:53.700Z,0.87
2019-03-13T03:00:37.357Z,0.90
2019-03-13T03:03:06.810Z,0.90
2019-03-13T03:05:35.871Z,0.97
2019-03-13T03:08:05.008Z,0.80
2019-03-13T03:10:34.363Z,0.60
2019-03-13T03:13:03.680Z,0.67
2019-03-13T03:15:32.628Z,0.80
2019-03-13T03:18:01.706Z,0.90
2019-03-13T03:20:30.742Z,0.73
2019-03-13T03:23:00.744Z,0.70
2019-03-13T03:25:31.245Z,1.57
2019-03-13T03:28:00.268Z,0.70
2019-03-13T03:30:29.323Z,0.93
2019-03-13T03:32:58.671Z,0.80
2019-03-13T03:35:28.628Z,0.70
2019-03-13T03:37:57.957Z,0.90
2019-03-13T03:40:27.292Z,0.67
2019-03-13T03:42:56.562Z,0.70
2019-03-13T03:45:25.593Z,0.90
2019-03-13T03:47:54.631Z,0.87
2019-03-13T03:50:23.762Z,0.60
2019-03-13T03:52:53.107Z,0.90
2019-03-13T03:55:22.161Z,0.70
2019-03-13T03:57:51.736Z,0.77
2019-03-13T04:00:21.156Z,0.73
2019-03-13T04:02:52.303Z,1.00
2019-03-13T04:05:22.716Z,1.13
2019-03-13T04:07:51.746Z,0.70
2019-03-13T04:10:20.783Z,0.93
2019-03-13T04:12:50.107Z,0.80
2019-03-13T04:15:19.202Z,1.17
2019-03-13T04:17:48.254Z,0.80
2019-03-13T04:20:17.628Z,0.77
2019-03-13T04:22:47.513Z,1.33
2019-03-13T04:25:31.159Z,0.97
2019-03-13T04:28:00.980Z,0.87
2019-03-13T04:30:30.288Z,0.87
2019-03-13T04:32:59.463Z,0.73
2019-03-13T04:35:28.569Z,0.90
2019-03-13T04:37:57.611Z,0.77
2019-03-13T04:40:27.264Z,0.70
2019-03-13T04:42:56.890Z,0.90
2019-03-13T04:45:26.273Z,0.70
2019-03-13T04:47:55.342Z,0.83
2019-03-13T04:50:24.750Z,0.70
2019-03-13T04:52:53.809Z,1.10
2019-03-13T04:55:23.212Z,0.80
2019-03-13T04:57:52.321Z,1.20
2019-03-13T05:00:21.760Z,0.80
2019-03-13T05:02:54.227Z,0.90
2019-03-13T05:05:52.419Z,0.70
2019-03-13T05:08:29.459Z,0.70
2019-03-13T05:10:58.613Z,0.87
2019-03-13T05:13:29.852Z,0.87
2019-03-13T05:15:59.394Z,1.07
2019-03-13T05:18:30.794Z,1.07
2019-03-13T05:20:59.914Z,1.13
2019-03-13T05:23:29.251Z,1.27
2019-03-13T05:25:58.510Z,0.83
2019-03-13T05:28:28.375Z,1.30
2019-03-13T05:30:57.371Z,1.27
2019-03-13T05:33:27.239Z,1.10
2019-03-13T05:35:56.369Z,2.00
2019-03-13T05:38:25.456Z,1.03
2019-03-13T05:40:54.550Z,1.20
2019-03-13T05:43:23.609Z,1.30
2019-03-13T05:45:52.998Z,1.30
2019-03-13T05:48:28.918Z,1.67
2019-03-13T05:50:58.074Z,1.50
2019-03-13T05:53:27.171Z,3.20
2019-03-13T05:55:58.274Z,1.53
2019-03-13T05:58:27.770Z,1.83
2019-03-13T06:00:56.822Z,1.57
2019-03-13T06:03:26.720Z,1.47
2019-03-13T06:05:56.345Z,1.80
2019-03-13T06:08:25.836Z,1.17
2019-03-13T06:10:54.935Z,1.23
2019-03-13T06:13:24.528Z,1.77
2019-03-13T06:15:53.923Z,2.17
2019-03-13T06:18:23.106Z,1.50
2019-03-13T06:20:52.778Z,1.37
2019-03-13T06:23:22.123Z,3.43
2019-03-13T06:25:52.055Z,1.30
2019-03-13T06:28:21.447Z,1.93
2019-03-13T06:30:51.435Z,1.50
2019-03-13T06:33:20.462Z,1.90
2019-03-13T06:35:49.479Z,1.70
2019-03-13T06:38:19.070Z,1.37
2019-03-13T06:40:49.279Z,1.33
2019-03-13T06:43:18.726Z,1.97
2019-03-13T06:45:47.810Z,1.20
2019-03-13T06:48:19.435Z,1.90
2019-03-13T06:50:49.559Z,1.17
2019-03-13T06:53:18.876Z,1.50
2019-03-13T06:55:49.163Z,1.30
2019-03-13T06:58:21.437Z,2.03
2019-03-13T07:01:09.558Z,1.27
2019-03-13T07:03:58.194Z,1.17
2019-03-13T07:06:46.269Z,1.60
2019-03-13T07:09:25.341Z,1.20
2019-03-13T07:12:12.381Z,1.70
2019-03-13T07:15:01.319Z,1.20
2019-03-13T07:17:52.333Z,1.13
2019-03-13T07:20:44.180Z,1.40
2019-03-13T07:23:44.226Z,1.93
2019-03-13T07:26:27.783Z,1.90
2019-03-13T07:29:21.874Z,1.03
2019-03-13T07:31:59.082Z,2.20
2019-03-13T07:34:47.419Z,1.50
2019-03-13T07:37:38.904Z,1.93
2019-03-13T07:40:26.701Z,1.17
2019-03-13T07:43:18.491Z,1.40
2019-03-13T07:46:12.450Z,1.53
2019-03-13T07:48:51.610Z,0.93
2019-03-13T07:51:59.270Z,1.23
2019-03-13T07:54:45.702Z,1.67
2019-03-13T07:57:34.413Z,1.83
2019-03-13T08:00:39.887Z,1.10
2019-03-13T08:03:28.450Z,1.23
2019-03-13T08:06:15.833Z,1.20
2019-03-13T08:09:02.685Z,1.07
2019-03-13T08:11:40.537Z,1.07
2019-03-13T08:14:19.642Z,1.40
2019-03-13T08:17:13.904Z,1.93
2019-03-13T08:19:57.430Z,1.20
2019-03-13T08:22:45.481Z,1.13
2019-03-13T08:25:32.057Z,1.30
2019-03-13T08:28:19.898Z,1.40
2019-03-13T08:30:56.563Z,1.10
2019-03-13T08:33:50.224Z,1.77
2019-03-13T08:36:26.626Z,1.13
2019-03-13T08:39:09.144Z,2.60
2019-03-13T08:42:12.539Z,1.60
2019-03-13T08:45:03.378Z,1.30
2019-03-13T08:47:54.154Z,1.73
2019-03-13T08:50:34.320Z,1.07
2019-03-13T08:53:34.332Z,1.10
2019-03-13T08:56:15.496Z,1.00
2019-03-13T08:59:18.782Z,1.50
2019-03-13T09:02:05.270Z,1.80
2019-03-13T09:04:44.364Z,2.60
2019-03-13T09:07:25.108Z,1.17
2019-03-13T09:10:08.589Z,1.37
2019-03-13T09:13:01.874Z,1.20
2019-03-13T09:15:47.872Z,1.23
2019-03-13T09:18:45.116Z,1.00
2019-03-13T09:21:23.121Z,1.70
2019-03-13T09:24:08.277Z,1.37
2019-03-13T09:27:02.541Z,1.40
2019-03-13T09:29:49.306Z,1.50
2019-03-13T09:32:36.084Z,1.10
2019-03-13T09:35:15.399Z,1.10
2019-03-13T09:38:05.965Z,1.70
2019-03-13T09:41:12.175Z,1.40
2019-03-13T09:44:09.135Z,1.20
2019-03-13T09:46:47.511Z,1.67
2019-03-13T09:49:22.302Z,1.33
2019-03-13T09:52:11.254Z,1.43
2019-03-13T09:55:04.609Z,1.63
2019-03-13T09:57:57.417Z,1.33
2019-03-13T10:00:48.156Z,1.40
2019-03-13T10:03:43.890Z,1.60
2019-03-13T10:06:41.514Z,1.37
2019-03-13T10:09:29.936Z,1.50
2019-03-13T10:12:34.318Z,1.23
2019-03-13T10:15:09.083Z,1.30
2019-03-13T10:17:49.159Z,1.27
2019-03-13T10:20:32.500Z,1.20
2019-03-13T10:23:25.846Z,1.43
2019-03-13T10:26:21.976Z,1.20
2019-03-13T10:29:10.967Z,1.00
2019-03-13T10:31:59.515Z,1.30
2019-03-13T10:34:54.796Z,1.60
2019-03-13T10:37:42.847Z,1.07
2019-03-13T10:40:29.334Z,1.57
2019-03-13T10:43:20.555Z,1.50
2019-03-13T10:45:59.387Z,1.33
2019-03-13T10:48:53.704Z,1.20
2019-03-13T10:51:49.797Z,1.30
2019-03-13T10:54:38.189Z,1.40
2019-03-13T10:57:35.312Z,1.20
2019-03-13T11:00:28.250Z,1.80
2019-03-13T11:03:04.695Z,1.33
2019-03-13T11:05:53.339Z,1.43
2019-03-13T11:08:43.937Z,1.10
2019-03-13T11:11:35.990Z,1.47
2019-03-13T11:14:27.304Z,1.33
2019-03-13T11:17:11.804Z,2.90
2019-03-13T11:19:55.648Z,1.47
2019-03-13T11:22:31.303Z,1.10
2019-03-13T11:25:10.000Z,1.13
2019-03-13T11:27:48.301Z,1.20
2019-03-13T11:30:52.138Z,1.17
2019-03-13T11:33:41.374Z,1.00
2019-03-13T11:36:38.911Z,1.10
2019-03-13T11:39:21.583Z,1.20
2019-03-13T11:42:08.392Z,1.77
2019-03-13T11:44:50.710Z,1.67
2019-03-13T11:47:26.116Z,1.60
2019-03-13T11:50:09.395Z,1.10
2019-03-13T11:52:56.159Z,1.50
2019-03-13T11:55:40.062Z,1.20
2019-03-13T11:58:43.616Z,1.33
2019-03-13T12:01:18.123Z,1.20
2019-03-13T12:04:18.213Z,1.30
2019-03-13T12:07:09.339Z,2.00
2019-03-13T12:09:56.110Z,1.37
2019-03-13T12:12:44.652Z,1.80
2019-03-13T12:15:32.754Z,1.23
2019-03-13T12:18:10.583Z,2.20
2019-03-13T12:21:04.957Z,1.50
2019-03-13T12:23:56.133Z,1.57
2019-03-13T12:26:34.683Z,1.93
2019-03-13T12:29:31.833Z,1.17
2019-03-13T12:32:19.788Z,1.57
2019-03-13T12:35:10.210Z,1.10
2019-03-13T12:38:03.116Z,1.17
2019-03-13T12:40:57.286Z,1.10
2019-03-13T12:44:03.381Z,1.90
2019-03-13T12:46:50.853Z,1.30
2019-03-13T12:49:40.444Z,1.80
2019-03-13T12:52:17.871Z,1.23
2019-03-13T12:55:18.428Z,1.63
2019-03-13T12:58:06.621Z,1.60
2019-03-13T13:00:57.987Z,1.00
2019-03-13T13:03:45.105Z,0.93
2019-03-13T13:06:22.421Z,1.10
2019-03-13T13:09:02.165Z,1.00
2019-03-13T13:11:49.416Z,1.70
2019-03-13T13:14:36.794Z,0.80
2019-03-13T13:17:20.787Z,1.07
2019-03-13T13:19:49.944Z,1.10
2019-03-13T13:22:19.057Z,1.43
2019-03-13T13:24:48.478Z,0.87
2019-03-13T13:27:17.691Z,1.33
2019-03-13T13:29:46.765Z,1.00
2019-03-13T13:32:16.096Z,1.20
2019-03-13T13:34:45.199Z,1.10
2019-03-13T13:37:20.125Z,1.07
2019-03-13T13:39:50.091Z,1.23
2019-03-13T13:42:23.770Z,1.60
2019-03-13T13:44:53.090Z,0.90
2019-03-13T13:47:22.584Z,1.03
2019-03-13T13:49:59.617Z,1.20
2019-03-13T13:52:23.363Z,0.97
2019-03-13T13:54:53.179Z,1.00
2019-03-13T13:57:22.461Z,0.93
2019-03-13T13:59:51.919Z,1.23
2019-03-13T14:02:22.853Z,1.10
2019-03-13T14:04:52.287Z,1.03
2019-03-13T14:07:21.715Z,1.47
2019-03-13T14:09:53.600Z,1.10
2019-03-13T14:12:22.834Z,1.30
2019-03-13T14:14:53.367Z,1.20
2019-03-13T14:17:22.712Z,1.00
2019-03-13T14:19:52.520Z,1.50
2019-03-13T14:22:22.385Z,0.97
2019-03-13T14:24:51.857Z,1.40
2019-03-13T14:27:23.973Z,0.83
2019-03-13T14:29:53.200Z,1.10
2019-03-13T14:32:22.378Z,1.13
2019-03-13T14:34:53.560Z,0.83
2019-03-13T14:37:26.295Z,1.00
2019-03-13T14:39:55.534Z,1.17
2019-03-13T14:42:24.699Z,1.17
2019-03-13T14:44:54.506Z,1.00
2019-03-13T14:47:23.646Z,0.90
2019-03-13T14:49:52.791Z,0.87
2019-03-13T14:52:21.883Z,1.47
2019-03-13T14:54:51.198Z,1.40
2019-03-13T14:57:20.296Z,1.00
2019-03-13T14:59:49.848Z,0.80
2019-03-13T15:02:19.273Z,1.00
2019-03-13T15:04:48.786Z,1.10
2019-03-13T15:07:17.855Z,1.07
2019-03-13T15:09:47.600Z,0.93
2019-03-13T15:12:17.180Z,1.23
2019-03-13T15:14:46.546Z,1.13
2019-03-13T15:17:15.748Z,1.03
2019-03-13T15:19:45.173Z,0.97
2019-03-13T15:22:14.240Z,1.30
2019-03-13T15:24:43.652Z,1.00
2019-03-13T15:27:13.449Z,0.70
2019-03-13T15:29:42.743Z,1.10
2019-03-13T15:32:11.893Z,1.97
2019-03-13T15:34:42.727Z,1.53
2019-03-13T15:37:11.784Z,1.33
2019-03-13T15:39:41.224Z,1.20
2019-03-13T15:42:10.321Z,0.90
2019-03-13T15:44:40.043Z,1.23
2019-03-13T15:47:11.822Z,0.70
2019-03-13T15:49:41.040Z,1.60
2019-03-13T15:52:10.141Z,1.33
2019-03-13T15:54:39.397Z,0.77
2019-03-13T15:57:08.582Z,0.97
2019-03-13T15:59:37.976Z,1.10
2019-03-13T16:02:07.597Z,1.03
2019-03-13T16:04:37.209Z,0.90
2019-03-13T16:07:06.780Z,1.07
2019-03-13T16:09:36.266Z,0.90
2019-03-13T16:12:05.432Z,0.77
2019-03-13T16:14:34.904Z,0.70
2019-03-13T16:17:04.055Z,0.70
2019-03-13T16:19:34.728Z,1.03
2019-03-13T16:22:05.278Z,1.10
2019-03-13T16:24:34.666Z,1.63
2019-03-13T16:27:04.159Z,1.57
2019-03-13T16:29:33.697Z,1.13
2019-03-13T16:32:03.009Z,1.13
2019-03-13T16:34:32.460Z,1.10
2019-03-13T16:37:01.476Z,1.20
2019-03-13T16:39:30.523Z,0.97
2019-03-13T16:41:59.564Z,1.13
2019-03-13T16:44:28.629Z,1.27
2019-03-13T16:46:57.769Z,1.20
2019-03-13T16:49:26.859Z,0.93
2019-03-13T16:51:56.560Z,1.10
2019-03-13T16:54:25.676Z,1.10
2019-03-13T16:56:54.960Z,1.10
2019-03-13T16:59:24.674Z,1.00
2019-03-13T17:01:53.729Z,1.47
2019-03-13T17:04:22.757Z,1.07
2019-03-13T17:06:51.816Z,1.13
2019-03-13T17:09:23.955Z,1.10
2019-03-13T17:11:53.140Z,1.20
2019-03-13T17:14:22.639Z,1.57
2019-03-13T17:16:51.840Z,1.43
2019-03-13T17:19:21.178Z,1.20
2019-03-13T17:21:53.459Z,0.90
2019-03-13T17:24:23.077Z,1.50
2019-03-13T17:26:52.436Z,0.90
2019-03-13T17:29:21.713Z,1.77
2019-03-13T17:31:51.403Z,1.40
2019-03-13T17:34:22.657Z,0.90
2019-03-13T17:36:51.754Z,1.53
2019-03-13T17:39:23.104Z,1.40
2019-03-13T17:41:52.223Z,1.63
2019-03-13T17:44:21.381Z,1.73
2019-03-13T17:46:50.953Z,1.60
2019-03-13T17:49:20.019Z,1.70
2019-03-13T17:51:49.812Z,1.87
2019-03-13T17:54:19.130Z,1.33
2019-03-13T17:56:48.875Z,1.30
2019-03-13T17:59:20.562Z,1.53
2019-03-13T18:01:49.863Z,1.53
2019-03-13T18:04:19.375Z,2.27
2019-03-13T18:06:50.215Z,1.90
2019-03-13T18:09:19.752Z,1.13
2019-03-13T18:11:49.107Z,0.93
2019-03-13T18:14:21.192Z,1.00
2019-03-13T18:16:52.837Z,1.00
2019-03-13T18:19:22.769Z,2.53
2019-03-13T18:21:52.475Z,1.03
2019-03-13T18:24:21.692Z,1.20
2019-03-13T18:26:50.996Z,1.07
2019-03-13T18:29:20.200Z,1.90
2019-03-13T18:31:51.802Z,1.20
2019-03-13T18:34:20.855Z,0.97
2019-03-13T18:36:56.029Z,0.93
2019-03-13T18:39:26.473Z,1.03
2019-03-13T18:41:55.560Z,0.87
2019-03-13T18:44:24.919Z,0.90
2019-03-13T18:46:53.947Z,1.13
2019-03-13T18:49:23.036Z,0.80
2019-03-13T18:51:52.861Z,0.97
2019-03-13T18:54:21.903Z,1.00
2019-03-13T18:56:51.322Z,1.10
2019-03-13T18:59:21.104Z,1.07
2019-03-13T19:01:50.878Z,1.20
2019-03-13T19:04:19.988Z,1.13
2019-03-13T19:06:49.665Z,1.00
2019-03-13T19:09:19.124Z,1.50
2019-03-13T19:11:48.174Z,1.70
2019-03-13T19:14:17.219Z,1.83
2019-03-13T19:16:46.529Z,1.30
2019-03-13T19:19:16.620Z,1.20
2019-03-13T19:21:46.194Z,1.20
2019-03-13T19:24:15.276Z,1.23
2019-03-13T19:26:46.796Z,1.63
2019-03-13T19:29:15.991Z,1.70
2019-03-13T19:31:45.163Z,2.03
2019-03-13T19:34:14.282Z,1.70
2019-03-13T19:36:44.192Z,1.50
2019-03-13T19:39:13.300Z,1.63
2019-03-13T19:41:45.453Z,1.13
2019-03-13T19:44:17.754Z,1.27
2019-03-13T19:46:47.498Z,1.30
2019-03-13T19:49:20.771Z,1.00
2019-03-13T19:51:50.282Z,1.13
2019-03-13T19:54:19.684Z,1.13
2019-03-13T19:56:48.883Z,1.20
2019-03-13T19:59:20.186Z,1.97
2019-03-13T20:01:49.385Z,1.10
2019-03-13T20:04:18.509Z,1.00
2019-03-13T20:06:47.651Z,0.90
2019-03-13T20:09:19.598Z,1.10
2019-03-13T20:11:48.734Z,1.30
2019-03-13T20:14:19.017Z,1.60
2019-03-13T20:16:48.943Z,1.40
2019-03-13T20:19:18.009Z,1.50
2019-03-13T20:21:49.327Z,1.17
2019-03-13T20:24:18.628Z,1.43
2019-03-13T20:26:47.992Z,1.67
2019-03-13T20:29:17.066Z,1.80
2019-03-13T20:31:46.435Z,2.00
2019-03-13T20:34:15.604Z,2.90
2019-03-13T20:36:47.595Z,3.93
2019-03-13T20:39:16.716Z,4.27
2019-03-13T20:41:47.114Z,4.53
2019-03-13T20:44:16.423Z,3.87
2019-03-13T20:46:47.539Z,4.13
2019-03-13T20:49:16.890Z,3.07
2019-03-13T20:51:45.951Z,2.10
2019-03-13T20:54:15.089Z,3.30
2019-03-13T20:56:44.121Z,2.60
2019-03-13T20:59:13.731Z,2.83
2019-03-13T21:01:42.946Z,3.53
2019-03-13T21:04:12.017Z,3.40
2019-03-13T21:06:42.642Z,3.30
2019-03-13T21:09:13.518Z,3.80
2019-03-13T21:11:42.597Z,4.10
2019-03-13T21:14:11.719Z,3.97
2019-03-13T21:16:40.752Z,4.70
2019-03-13T21:19:09.943Z,3.57
2019-03-13T21:21:40.176Z,3.70
2019-03-13T21:24:09.393Z,3.90
2019-03-13T21:26:39.630Z,4.10
2019-03-13T21:29:08.691Z,4.87
2019-03-13T21:31:38.066Z,4.90
2019-03-13T21:34:07.458Z,5.37
2019-03-13T21:36:36.574Z,4.33
2019-03-13T21:39:06.459Z,3.67
2019-03-13T21:41:35.812Z,5.40
2019-03-13T21:44:05.449Z,3.80
2019-03-13T21:46:35.127Z,4.03
2019-03-13T21:49:07.853Z,3.80
2019-03-13T21:51:38.953Z,4.07
2019-03-13T21:54:10.167Z,3.53
2019-03-13T21:56:39.368Z,3.77
2019-03-13T21:59:09.506Z,5.00
2019-03-13T22:01:38.956Z,4.20
2019-03-13T22:04:08.468Z,4.00
2019-03-13T22:06:37.979Z,4.40
2019-03-13T22:09:07.354Z,4.73
2019-03-13T22:11:36.368Z,4.97
2019-03-13T22:14:06.237Z,4.73
2019-03-13T22:16:35.387Z,3.47
2019-03-13T22:19:04.530Z,4.43
2019-03-13T22:21:33.671Z,4.00
2019-03-13T22:24:03.119Z,3.77
2019-03-13T22:26:33.631Z,3.83
2019-03-13T22:29:02.699Z,4.00
2019-03-13T22:31:35.107Z,4.33
2019-03-13T22:34:04.378Z,4.00
2019-03-13T22:36:36.645Z,4.87
2019-03-13T22:39:07.941Z,5.30
2019-03-13T22:41:37.176Z,5.40
2019-03-13T22:44:06.510Z,5.50
2019-03-13T22:46:35.569Z,5.07
2019-03-13T22:49:07.810Z,4.57
2019-03-13T22:51:36.837Z,4.40
2019-03-13T22:54:05.978Z,4.33
2019-03-13T22:56:34.931Z,5.07
2019-03-13T22:59:04.593Z,4.40
2019-03-13T23:01:33.686Z,4.57
2019-03-13T23:04:02.801Z,5.13
2019-03-13T23:06:31.842Z,5.37
2019-03-13T23:09:01.386Z,6.43
2019-03-13T23:11:30.956Z,5.50
2019-03-13T23:14:00.034Z,5.57
2019-03-13T23:16:29.090Z,4.73
2019-03-13T23:18:58.491Z,4.87
2019-03-13T23:21:28.504Z,5.33
2019-03-13T23:23:57.539Z,6.10
2019-03-13T23:26:26.566Z,5.67
2019-03-13T23:28:55.612Z,4.63
2019-03-13T23:31:26.235Z,4.60
2019-03-13T23:33:57.969Z,5.13
2019-03-13T23:36:29.370Z,4.97
2019-03-13T23:38:58.364Z,4.97
2019-03-13T23:41:27.706Z,4.57
2019-03-13T23:43:57.308Z,5.70
2019-03-13T23:46:27.022Z,4.57
2019-03-13T23:48:56.076Z,5.00
2019-03-13T23:51:25.742Z,5.00
2019-03-13T23:53:54.984Z,4.50
2019-03-13T23:56:24.175Z,4.97
2019-03-13T23:58:53.275Z,4.77
